sensor_id;sensor_type;location;lat;lon;timestamp;pressure;altitude;pressure_sealevel;temperature;humidity
79004;BME280;68369;51.050;17.018;2023-04-03T00:00:48;101062.90;;;2.36;64.71
79004;BME280;68369;51.050;17.018;2023-04-03T00:03:34;101066.33;;;2.29;64.82
79004;BME280;68369;51.050;17.018;2023-04-03T00:06:20;101065.59;;;2.19;65.07
79004;BME280;68369;51.050;17.018;2023-04-03T00:09:05;101067.65;;;2.12;65.30
79004;BME280;68369;51.050;17.018;2023-04-03T00:11:51;101065.90;;;2.08;65.28
79004;BME280;68369;51.050;17.018;2023-04-03T00:14:37;101067.98;;;2.09;65.20
79004;BME280;68369;51.050;17.018;2023-04-03T00:17:22;101066.41;;;2.09;65.43
79004;BME280;68369;51.050;17.018;2023-04-03T00:23:01;101070.75;;;2.12;65.81
79004;BME280;68369;51.050;17.018;2023-04-03T00:25:47;101071.95;;;2.10;65.67
79004;BME280;68369;51.050;17.018;2023-04-03T00:28:32;101076.60;;;2.07;65.61
79004;BME280;68369;51.050;17.018;2023-04-03T00:31:18;101073.99;;;2.05;65.67
79004;BME280;68369;51.050;17.018;2023-04-03T00:34:03;101073.14;;;2.04;65.97
79004;BME280;68369;51.050;17.018;2023-04-03T00:36:48;101075.02;;;2.02;65.79
79004;BME280;68369;51.050;17.018;2023-04-03T00:39:34;101075.88;;;2.00;66.07
79004;BME280;68369;51.050;17.018;2023-04-03T00:42:19;101074.14;;;1.99;66.17
79004;BME280;68369;51.050;17.018;2023-04-03T00:47:57;101078.61;;;1.95;65.97
79004;BME280;68369;51.050;17.018;2023-04-03T00:54:02;101075.46;;;1.87;66.27
79004;BME280;68369;51.050;17.018;2023-04-03T00:56:50;101072.84;;;1.82;66.32
79004;BME280;68369;51.050;17.018;2023-04-03T00:59:38;101077.66;;;1.79;66.48
79004;BME280;68369;51.050;17.018;2023-04-03T01:05:41;101075.72;;;1.71;66.77
79004;BME280;68369;51.050;17.018;2023-04-03T01:08:27;101081.72;;;1.67;66.84
79004;BME280;68369;51.050;17.018;2023-04-03T01:11:13;101081.20;;;1.67;66.98
79004;BME280;68369;51.050;17.018;2023-04-03T01:13:58;101083.47;;;1.68;67.07
79004;BME280;68369;51.050;17.018;2023-04-03T01:19:41;101092.49;;;1.77;66.86
79004;BME280;68369;51.050;17.018;2023-04-03T01:22:41;101091.12;;;1.78;67.01
79004;BME280;68369;51.050;17.018;2023-04-03T01:25:29;101090.94;;;1.76;66.55
79004;BME280;68369;51.050;17.018;2023-04-03T01:37:52;101102.77;;;1.64;67.45
79004;BME280;68369;51.050;17.018;2023-04-03T01:40:37;101104.98;;;1.62;67.61
79004;BME280;68369;51.050;17.018;2023-04-03T01:47:10;101103.05;;;1.57;67.65
79004;BME280;68369;51.050;17.018;2023-04-03T01:49:56;101109.95;;;1.55;67.68
79004;BME280;68369;51.050;17.018;2023-04-03T01:52:41;101111.50;;;1.56;67.94
79004;BME280;68369;51.050;17.018;2023-04-03T02:01:04;101117.27;;;1.66;68.08
79004;BME280;68369;51.050;17.018;2023-04-03T02:03:50;101120.09;;;1.74;68.28
79004;BME280;68369;51.050;17.018;2023-04-03T02:06:35;101123.59;;;1.82;67.99
79004;BME280;68369;51.050;17.018;2023-04-03T02:12:23;101132.77;;;1.87;67.92
79004;BME280;68369;51.050;17.018;2023-04-03T02:15:09;101129.16;;;1.88;67.80
79004;BME280;68369;51.050;17.018;2023-04-03T02:17:54;101129.67;;;1.87;67.84
79004;BME280;68369;51.050;17.018;2023-04-03T02:23:25;101127.38;;;1.79;67.72
79004;BME280;68369;51.050;17.018;2023-04-03T02:26:12;101127.33;;;1.72;67.29
79004;BME280;68369;51.050;17.018;2023-04-03T02:28:58;101125.20;;;1.64;67.82
79004;BME280;68369;51.050;17.018;2023-04-03T02:31:43;101123.08;;;1.56;67.72
79004;BME280;68369;51.050;17.018;2023-04-03T02:34:28;101125.92;;;1.45;67.80
79004;BME280;68369;51.050;17.018;2023-04-03T02:43:31;101132.96;;;1.20;68.20
79004;BME280;68369;51.050;17.018;2023-04-03T02:46:17;101135.30;;;1.13;68.46
79004;BME280;68369;51.050;17.018;2023-04-03T02:49:02;101134.89;;;1.07;68.93
79004;BME280;68369;51.050;17.018;2023-04-03T03:04:10;101147.83;;;1.07;69.10
79004;BME280;68369;51.050;17.018;2023-04-03T03:09:48;101142.42;;;1.01;69.49
79004;BME280;68369;51.050;17.018;2023-04-03T03:15:26;101143.04;;;0.93;69.46
79004;BME280;68369;51.050;17.018;2023-04-03T03:18:11;101139.54;;;0.89;69.65
79004;BME280;68369;51.050;17.018;2023-04-03T03:20:59;101142.95;;;0.85;69.84
79004;BME280;68369;51.050;17.018;2023-04-03T03:30:12;101153.80;;;0.70;70.49
79004;BME280;68369;51.050;17.018;2023-04-03T03:39:31;101158.47;;;0.71;70.75
79004;BME280;68369;51.050;17.018;2023-04-03T03:42:20;101158.33;;;0.75;70.71
79004;BME280;68369;51.050;17.018;2023-04-03T03:48:14;101149.41;;;0.76;70.29
79004;BME280;68369;51.050;17.018;2023-04-03T03:51:01;101155.61;;;0.78;70.48
79004;BME280;68369;51.050;17.018;2023-04-03T03:53:46;101164.94;;;0.79;70.50
79004;BME280;68369;51.050;17.018;2023-04-03T04:03:28;101168.63;;;0.70;70.78
79004;BME280;68369;51.050;17.018;2023-04-03T04:32:25;101194.58;;;0.51;71.53
79004;BME280;68369;51.050;17.018;2023-04-03T04:37:56;101197.21;;;0.54;71.14
79004;BME280;68369;51.050;17.018;2023-04-03T04:43:35;101205.75;;;0.49;71.57
79004;BME280;68369;51.050;17.018;2023-04-03T04:46:20;101206.06;;;0.46;71.72
79004;BME280;68369;51.050;17.018;2023-04-03T04:49:06;101211.19;;;0.43;71.71
79004;BME280;68369;51.050;17.018;2023-04-03T04:51:51;101214.09;;;0.42;71.76
79004;BME280;68369;51.050;17.018;2023-04-03T04:54:37;101220.08;;;0.39;71.89
79004;BME280;68369;51.050;17.018;2023-04-03T04:57:23;101218.34;;;0.36;72.01
79004;BME280;68369;51.050;17.018;2023-04-03T05:00:12;101222.41;;;0.33;72.10
79004;BME280;68369;51.050;17.018;2023-04-03T05:06:06;101217.38;;;0.31;72.32
79004;BME280;68369;51.050;17.018;2023-04-03T05:08:52;101218.98;;;0.35;72.40
79004;BME280;68369;51.050;17.018;2023-04-03T05:11:37;101226.48;;;0.41;72.34
79004;BME280;68369;51.050;17.018;2023-04-03T05:14:23;101225.70;;;0.46;72.40
79004;BME280;68369;51.050;17.018;2023-04-03T05:17:08;101228.70;;;0.51;72.30
79004;BME280;68369;51.050;17.018;2023-04-03T05:19:54;101234.27;;;0.56;72.24
79004;BME280;68369;51.050;17.018;2023-04-03T05:22:40;101237.77;;;0.60;72.16
79004;BME280;68369;51.050;17.018;2023-04-03T05:28:10;101241.43;;;0.62;72.22
79004;BME280;68369;51.050;17.018;2023-04-03T05:30:57;101244.21;;;0.65;72.52
79004;BME280;68369;51.050;17.018;2023-04-03T05:33:43;101246.14;;;0.68;72.44
79004;BME280;68369;51.050;17.018;2023-04-03T05:42:47;101257.55;;;0.83;72.09
79004;BME280;68369;51.050;17.018;2023-04-03T05:45:33;101252.59;;;0.87;72.08
79004;BME280;68369;51.050;17.018;2023-04-03T05:48:19;101260.61;;;0.94;72.23
79004;BME280;68369;51.050;17.018;2023-04-03T05:51:06;101258.31;;;1.04;72.05
79004;BME280;68369;51.050;17.018;2023-04-03T05:53:59;101257.63;;;1.20;71.46
79004;BME280;68369;51.050;17.018;2023-04-03T06:00:13;101256.71;;;1.48;71.11
79004;BME280;68369;51.050;17.018;2023-04-03T06:03:00;101258.73;;;1.60;71.14
79004;BME280;68369;51.050;17.018;2023-04-03T06:05:45;101261.58;;;1.68;70.62
79004;BME280;68369;51.050;17.018;2023-04-03T06:08:31;101262.54;;;1.78;70.58
79004;BME280;68369;51.050;17.018;2023-04-03T06:11:17;101266.59;;;1.87;70.30
79004;BME280;68369;51.050;17.018;2023-04-03T06:23:31;101265.98;;;2.19;69.31
79004;BME280;68369;51.050;17.018;2023-04-03T06:32:55;101272.12;;;2.32;68.76
79004;BME280;68369;51.050;17.018;2023-04-03T06:35:42;101258.64;;;2.31;68.66
79004;BME280;68369;51.050;17.018;2023-04-03T06:38:28;101270.29;;;2.43;68.67
79004;BME280;68369;51.050;17.018;2023-04-03T06:41:13;101280.35;;;2.49;68.26
79004;BME280;68369;51.050;17.018;2023-04-03T06:43:59;101281.40;;;2.51;67.84
79004;BME280;68369;51.050;17.018;2023-04-03T06:46:45;101282.65;;;2.55;67.40
79004;BME280;68369;51.050;17.018;2023-04-03T06:49:31;101284.06;;;2.61;67.00
79004;BME280;68369;51.050;17.018;2023-04-03T06:52:17;101291.73;;;2.73;66.92
79004;BME280;68369;51.050;17.018;2023-04-03T06:55:03;101290.22;;;2.82;66.49
79004;BME280;68369;51.050;17.018;2023-04-03T06:57:48;101296.31;;;2.92;66.34
79004;BME280;68369;51.050;17.018;2023-04-03T07:00:33;101297.56;;;2.99;66.35
79004;BME280;68369;51.050;17.018;2023-04-03T07:03:19;101301.05;;;3.06;65.95
79004;BME280;68369;51.050;17.018;2023-04-03T07:06:04;101304.02;;;3.12;65.76
79004;BME280;68369;51.050;17.018;2023-04-03T07:08:50;101307.35;;;3.23;65.14
79004;BME280;68369;51.050;17.018;2023-04-03T07:14:57;101310.17;;;3.36;64.04
79004;BME280;68369;51.050;17.018;2023-04-03T07:17:43;101314.85;;;3.38;63.70
79004;BME280;68369;51.050;17.018;2023-04-03T07:24:07;101312.97;;;3.45;63.85
79004;BME280;68369;51.050;17.018;2023-04-03T07:26:58;101315.58;;;3.49;63.76
79004;BME280;68369;51.050;17.018;2023-04-03T07:33:01;101325.98;;;3.58;62.76
79004;BME280;68369;51.050;17.018;2023-04-03T07:35:47;101329.80;;;3.58;62.59
79004;BME280;68369;51.050;17.018;2023-04-03T07:38:34;101327.55;;;3.57;62.78
79004;BME280;68369;51.050;17.018;2023-04-03T07:41:21;101325.15;;;3.67;63.29
79004;BME280;68369;51.050;17.018;2023-04-03T07:47:30;101327.91;;;4.83;61.88
79004;BME280;68369;51.050;17.018;2023-04-03T07:50:17;101322.62;;;5.13;60.66
79004;BME280;68369;51.050;17.018;2023-04-03T07:53:03;101322.38;;;5.30;60.43
79004;BME280;68369;51.050;17.018;2023-04-03T07:55:49;101317.01;;;5.60;59.71
79004;BME280;68369;51.050;17.018;2023-04-03T07:58:36;101318.91;;;5.62;59.29
79004;BME280;68369;51.050;17.018;2023-04-03T08:01:22;101314.13;;;5.47;58.73
79004;BME280;68369;51.050;17.018;2023-04-03T08:04:07;101322.84;;;5.40;58.87
79004;BME280;68369;51.050;17.018;2023-04-03T08:06:52;101320.97;;;5.33;59.21
79004;BME280;68369;51.050;17.018;2023-04-03T08:09:38;101322.73;;;5.29;59.17
79004;BME280;68369;51.050;17.018;2023-04-03T08:12:22;101324.50;;;5.22;58.75
79004;BME280;68369;51.050;17.018;2023-04-03T08:15:08;101323.14;;;5.15;58.81
79004;BME280;68369;51.050;17.018;2023-04-03T08:17:54;101326.10;;;5.13;58.78
79004;BME280;68369;51.050;17.018;2023-04-03T08:20:39;101325.92;;;5.10;58.82
79004;BME280;68369;51.050;17.018;2023-04-03T08:23:25;101333.06;;;5.04;58.63
79004;BME280;68369;51.050;17.018;2023-04-03T08:29:19;101320.06;;;5.03;57.76
79004;BME280;68369;51.050;17.018;2023-04-03T08:32:05;101325.23;;;5.12;57.85
79004;BME280;68369;51.050;17.018;2023-04-03T08:34:52;101321.38;;;5.20;58.19
79004;BME280;68369;51.050;17.018;2023-04-03T08:37:39;101321.48;;;5.38;58.33
79004;BME280;68369;51.050;17.018;2023-04-03T08:40:25;101325.55;;;5.55;57.24
79004;BME280;68369;51.050;17.018;2023-04-03T08:49:55;101328.52;;;5.82;55.30
79004;BME280;68369;51.050;17.018;2023-04-03T08:52:45;101323.33;;;5.78;54.92
79004;BME280;68369;51.050;17.018;2023-04-03T08:55:51;101324.82;;;5.94;54.64
79004;BME280;68369;51.050;17.018;2023-04-03T09:01:39;101320.26;;;6.24;53.52
79004;BME280;68369;51.050;17.018;2023-04-03T09:04:26;101320.07;;;6.45;53.36
79004;BME280;68369;51.050;17.018;2023-04-03T09:07:19;101320.54;;;6.68;53.54
79004;BME280;68369;51.050;17.018;2023-04-03T09:10:10;101323.27;;;6.75;52.54
79004;BME280;68369;51.050;17.018;2023-04-03T09:15:49;101326.58;;;6.72;51.92
79004;BME280;68369;51.050;17.018;2023-04-03T09:18:39;101325.70;;;6.56;51.53
79004;BME280;68369;51.050;17.018;2023-04-03T09:24:19;101324.23;;;6.82;49.57
79004;BME280;68369;51.050;17.018;2023-04-03T09:30:25;101328.29;;;6.76;49.15
79004;BME280;68369;51.050;17.018;2023-04-03T09:33:12;101321.69;;;6.92;48.31
79004;BME280;68369;51.050;17.018;2023-04-03T09:35:57;101324.55;;;7.30;47.02
79004;BME280;68369;51.050;17.018;2023-04-03T09:38:42;101326.63;;;7.45;47.06
79004;BME280;68369;51.050;17.018;2023-04-03T09:41:27;101325.64;;;7.41;46.65
79004;BME280;68369;51.050;17.018;2023-04-03T09:44:25;101326.44;;;7.32;46.91
79004;BME280;68369;51.050;17.018;2023-04-03T09:53:41;101329.25;;;7.15;46.12
79004;BME280;68369;51.050;17.018;2023-04-03T09:56:29;101323.77;;;7.09;45.93
79004;BME280;68369;51.050;17.018;2023-04-03T09:59:15;101325.08;;;7.00;45.61
79004;BME280;68369;51.050;17.018;2023-04-03T10:05:30;101324.16;;;6.89;45.82
79004;BME280;68369;51.050;17.018;2023-04-03T10:11:16;101326.17;;;7.25;46.41
79004;BME280;68369;51.050;17.018;2023-04-03T10:14:03;101319.76;;;7.62;46.23
79004;BME280;68369;51.050;17.018;2023-04-03T10:23:24;101317.23;;;8.25;43.89
79004;BME280;68369;51.050;17.018;2023-04-03T10:41:29;101309.27;;;8.42;42.48
79004;BME280;68369;51.050;17.018;2023-04-03T10:47:40;101304.34;;;8.84;41.80
79004;BME280;68369;51.050;17.018;2023-04-03T11:06:45;101298.13;;;8.89;41.78
79004;BME280;68369;51.050;17.018;2023-04-03T11:09:35;101303.73;;;9.16;41.22
79004;BME280;68369;51.050;17.018;2023-04-03T11:12:32;101298.26;;;9.10;40.29
79004;BME280;68369;51.050;17.018;2023-04-03T11:15:21;101303.91;;;8.89;40.63
79004;BME280;68369;51.050;17.018;2023-04-03T11:21:26;101300.71;;;8.65;39.74
79004;BME280;68369;51.050;17.018;2023-04-03T11:24:27;101289.84;;;9.03;40.38
79004;BME280;68369;51.050;17.018;2023-04-03T11:27:19;101296.12;;;9.11;41.10
79004;BME280;68369;51.050;17.018;2023-04-03T11:30:21;101294.96;;;9.00;41.08
79004;BME280;68369;51.050;17.018;2023-04-03T11:36:10;101300.85;;;8.56;40.99
79004;BME280;68369;51.050;17.018;2023-04-03T11:39:19;101295.66;;;8.54;41.22
79004;BME280;68369;51.050;17.018;2023-04-03T11:42:24;101290.02;;;8.66;40.82
79004;BME280;68369;51.050;17.018;2023-04-03T11:54:43;101290.58;;;8.55;40.16
79004;BME280;68369;51.050;17.018;2023-04-03T12:12:55;101284.40;;;9.68;37.23
79004;BME280;68369;51.050;17.018;2023-04-03T12:15:48;101280.23;;;10.04;37.36
79004;BME280;68369;51.050;17.018;2023-04-03T12:42:03;101270.44;;;10.33;35.37
79004;BME280;68369;51.050;17.018;2023-04-03T12:45:15;101265.20;;;10.03;34.79
79004;BME280;68369;51.050;17.018;2023-04-03T13:10:54;101254.98;;;10.28;35.95
79004;BME280;68369;51.050;17.018;2023-04-03T13:16:33;101265.13;;;10.28;35.82
79004;BME280;68369;51.050;17.018;2023-04-03T13:19:18;101266.45;;;10.10;35.84
79004;BME280;68369;51.050;17.018;2023-04-03T13:28:26;101262.27;;;9.80;35.62
79004;BME280;68369;51.050;17.018;2023-04-03T13:37:31;101251.55;;;10.11;35.73
79004;BME280;68369;51.050;17.018;2023-04-03T13:40:17;101258.42;;;10.09;34.63
79004;BME280;68369;51.050;17.018;2023-04-03T13:43:25;101266.30;;;9.87;34.46
79004;BME280;68369;51.050;17.018;2023-04-03T13:48:56;101258.96;;;9.41;34.93
79004;BME280;68369;51.050;17.018;2023-04-03T13:51:42;101251.52;;;9.30;35.52
79004;BME280;68369;51.050;17.018;2023-04-03T14:01:25;101252.81;;;9.27;36.14
79004;BME280;68369;51.050;17.018;2023-04-03T14:10:25;101255.49;;;8.91;35.51
79004;BME280;68369;51.050;17.018;2023-04-03T14:13:14;101252.73;;;8.81;35.44
79004;BME280;68369;51.050;17.018;2023-04-03T14:19:17;101243.09;;;9.48;35.12
79004;BME280;68369;51.050;17.018;2023-04-03T14:25:28;101253.97;;;8.88;34.76
79004;BME280;68369;51.050;17.018;2023-04-03T14:31:16;101240.85;;;10.60;34.00
79004;BME280;68369;51.050;17.018;2023-04-03T14:37:25;101241.00;;;9.92;33.35
79004;BME280;68369;51.050;17.018;2023-04-03T14:40:19;101238.61;;;9.52;33.98
79004;BME280;68369;51.050;17.018;2023-04-03T14:49:18;101231.52;;;9.26;33.85
79004;BME280;68369;51.050;17.018;2023-04-03T14:52:46;101238.13;;;9.12;34.27
79004;BME280;68369;51.050;17.018;2023-04-03T14:59:00;101237.08;;;9.28;34.24
79004;BME280;68369;51.050;17.018;2023-04-03T15:04:57;101241.96;;;8.87;34.00
79004;BME280;68369;51.050;17.018;2023-04-03T15:10:58;101250.77;;;8.24;34.78
79004;BME280;68369;51.050;17.018;2023-04-03T15:13:44;101245.46;;;7.99;35.29
79004;BME280;68369;51.050;17.018;2023-04-03T15:16:29;101248.76;;;7.79;35.56
79004;BME280;68369;51.050;17.018;2023-04-03T15:19:14;101246.44;;;7.60;36.25
79004;BME280;68369;51.050;17.018;2023-04-03T15:22:00;101249.84;;;7.42;35.64
79004;BME280;68369;51.050;17.018;2023-04-03T15:24:46;101251.59;;;7.28;35.73
79004;BME280;68369;51.050;17.018;2023-04-03T15:27:50;101250.86;;;7.16;36.65
79004;BME280;68369;51.050;17.018;2023-04-03T15:36:59;101250.98;;;6.95;37.45
79004;BME280;68369;51.050;17.018;2023-04-03T15:42:50;101257.10;;;6.77;37.44
79004;BME280;68369;51.050;17.018;2023-04-03T15:45:38;101260.88;;;6.68;37.13
79004;BME280;68369;51.050;17.018;2023-04-03T16:06:50;101264.67;;;6.16;39.50
79004;BME280;68369;51.050;17.018;2023-04-03T16:09:36;101266.46;;;6.12;40.11
79004;BME280;68369;51.050;17.018;2023-04-03T16:19:16;101269.04;;;5.90;40.99
79004;BME280;68369;51.050;17.018;2023-04-03T16:22:02;101273.80;;;5.80;40.90
79004;BME280;68369;51.050;17.018;2023-04-03T16:24:47;101273.34;;;5.72;41.01
79004;BME280;68369;51.050;17.018;2023-04-03T16:27:34;101278.06;;;5.65;41.21
79004;BME280;68369;51.050;17.018;2023-04-03T16:30:20;101280.38;;;5.57;41.29
79004;BME280;68369;51.050;17.018;2023-04-03T16:33:06;101276.78;;;5.49;41.10
79004;BME280;68369;51.050;17.018;2023-04-03T16:35:51;101281.33;;;5.44;41.50
79004;BME280;68369;51.050;17.018;2023-04-03T16:38:37;101285.88;;;5.38;41.51
79004;BME280;68369;51.050;17.018;2023-04-03T16:44:21;101286.27;;;5.30;41.83
79004;BME280;68369;51.050;17.018;2023-04-03T16:50:24;101287.52;;;5.22;42.66
79004;BME280;68369;51.050;17.018;2023-04-03T16:53:09;101291.36;;;5.16;42.95
79004;BME280;68369;51.050;17.018;2023-04-03T16:59:09;101299.57;;;5.07;43.32
79004;BME280;68369;51.050;17.018;2023-04-03T17:01:54;101301.13;;;5.04;43.65
79004;BME280;68369;51.050;17.018;2023-04-03T17:04:40;101298.71;;;4.99;43.60
79004;BME280;68369;51.050;17.018;2023-04-03T17:07:25;101298.56;;;4.96;43.02
79004;BME280;68369;51.050;17.018;2023-04-03T17:10:12;101297.88;;;4.92;43.29
79004;BME280;68369;51.050;17.018;2023-04-03T17:12:57;101301.71;;;4.87;43.03
79004;BME280;68369;51.050;17.018;2023-04-03T17:15:42;101300.51;;;4.82;43.20
79004;BME280;68369;51.050;17.018;2023-04-03T17:18:28;101301.91;;;4.77;43.49
79004;BME280;68369;51.050;17.018;2023-04-03T17:21:14;101304.35;;;4.72;43.44
79004;BME280;68369;51.050;17.018;2023-04-03T17:24:02;101305.75;;;4.70;43.51
79004;BME280;68369;51.050;17.018;2023-04-03T17:26:48;101305.92;;;4.65;43.52
79004;BME280;68369;51.050;17.018;2023-04-03T17:32:18;101314.42;;;4.60;44.23
79004;BME280;68369;51.050;17.018;2023-04-03T17:35:05;101316.00;;;4.57;44.44
79004;BME280;68369;51.050;17.018;2023-04-03T17:43:28;101320.34;;;4.51;44.59
79004;BME280;68369;51.050;17.018;2023-04-03T17:46:15;101320.35;;;4.48;44.37
79004;BME280;68369;51.050;17.018;2023-04-03T17:49:03;101309.08;;;4.37;44.58
79004;BME280;68369;51.050;17.018;2023-04-03T17:51:49;101317.92;;;4.41;44.53
79004;BME280;68369;51.050;17.018;2023-04-03T17:54:35;101318.61;;;4.38;44.83
79004;BME280;68369;51.050;17.018;2023-04-03T17:57:21;101320.36;;;4.37;45.22
79004;BME280;68369;51.050;17.018;2023-04-03T18:00:06;101319.48;;;4.34;45.62
79004;BME280;68369;51.050;17.018;2023-04-03T18:05:44;101319.48;;;4.31;45.79
79004;BME280;68369;51.050;17.018;2023-04-03T18:08:34;101320.52;;;4.29;45.97
79004;BME280;68369;51.050;17.018;2023-04-03T18:11:24;101318.45;;;4.26;46.11
79004;BME280;68369;51.050;17.018;2023-04-03T18:14:16;101318.63;;;4.23;46.45
79004;BME280;68369;51.050;17.018;2023-04-03T18:17:03;101320.89;;;4.21;46.07
79004;BME280;68369;51.050;17.018;2023-04-03T18:19:48;101319.31;;;4.18;46.29
79004;BME280;68369;51.050;17.018;2023-04-03T18:22:36;101322.08;;;4.18;46.42
79004;BME280;68369;51.050;17.018;2023-04-03T18:25:21;101324.17;;;4.16;46.44
79004;BME280;68369;51.050;17.018;2023-04-03T18:28:06;101324.70;;;4.13;46.05
79004;BME280;68369;51.050;17.018;2023-04-03T18:31:14;101327.48;;;4.14;46.40
79004;BME280;68369;51.050;17.018;2023-04-03T18:34:02;101330.06;;;4.15;46.72
79004;BME280;68369;51.050;17.018;2023-04-03T18:36:48;101331.96;;;4.15;46.67
79004;BME280;68369;51.050;17.018;2023-04-03T18:39:35;101320.54;;;4.12;46.76
79004;BME280;68369;51.050;17.018;2023-04-03T18:42:24;101315.85;;;4.06;46.63
79004;BME280;68369;51.050;17.018;2023-04-03T18:45:12;101331.96;;;4.16;46.99
79004;BME280;68369;51.050;17.018;2023-04-03T18:48:03;101331.45;;;4.15;47.30
79004;BME280;68369;51.050;17.018;2023-04-03T18:50:49;101332.66;;;4.14;47.32
79004;BME280;68369;51.050;17.018;2023-04-03T18:53:35;101329.89;;;4.14;47.36
79004;BME280;68369;51.050;17.018;2023-04-03T19:02:11;101325.73;;;4.09;47.48
79004;BME280;68369;51.050;17.018;2023-04-03T19:04:57;101327.28;;;4.07;47.15
79004;BME280;68369;51.050;17.018;2023-04-03T19:07:43;101323.30;;;4.03;47.18
79004;BME280;68369;51.050;17.018;2023-04-03T19:10:29;101326.23;;;4.04;47.33
79004;BME280;68369;51.050;17.018;2023-04-03T19:13:14;101326.76;;;4.04;47.89
79004;BME280;68369;51.050;17.018;2023-04-03T19:16:00;101322.77;;;4.03;47.75
79004;BME280;68369;51.050;17.018;2023-04-03T19:22:25;101325.55;;;4.01;48.04
79004;BME280;68369;51.050;17.018;2023-04-03T19:25:11;101326.41;;;4.00;48.10
79004;BME280;68369;51.050;17.018;2023-04-03T19:27:57;101325.73;;;3.98;48.29
79004;BME280;68369;51.050;17.018;2023-04-03T19:30:42;101325.88;;;3.95;48.04
79004;BME280;68369;51.050;17.018;2023-04-03T19:36:46;101327.63;;;3.92;48.48
79004;BME280;68369;51.050;17.018;2023-04-03T19:39:33;101329.88;;;3.91;48.79
79004;BME280;68369;51.050;17.018;2023-04-03T19:42:20;101323.29;;;3.89;48.72
79004;BME280;68369;51.050;17.018;2023-04-03T19:45:06;101327.10;;;3.88;48.73
79004;BME280;68369;51.050;17.018;2023-04-03T19:47:52;101327.96;;;3.88;48.98
79004;BME280;68369;51.050;17.018;2023-04-03T19:50:38;101326.23;;;3.87;48.87
79004;BME280;68369;51.050;17.018;2023-04-03T19:53:24;101332.64;;;3.88;48.95
79004;BME280;68369;51.050;17.018;2023-04-03T19:56:13;101332.99;;;3.88;49.34
79004;BME280;68369;51.050;17.018;2023-04-03T19:59:02;101334.36;;;3.86;49.08
79004;BME280;68369;51.050;17.018;2023-04-03T20:01:47;101333.15;;;3.87;49.32
79004;BME280;68369;51.050;17.018;2023-04-03T20:04:32;101331.76;;;3.87;49.65
79004;BME280;68369;51.050;17.018;2023-04-03T20:07:17;101336.61;;;3.87;49.35
79004;BME280;68369;51.050;17.018;2023-04-03T20:10:02;101332.11;;;3.85;49.78
79004;BME280;68369;51.050;17.018;2023-04-03T20:12:58;101334.37;;;3.83;49.43
79004;BME280;68369;51.050;17.018;2023-04-03T20:15:43;101333.50;;;3.80;49.38
79004;BME280;68369;51.050;17.018;2023-04-03T20:18:29;101339.72;;;3.79;49.20
79004;BME280;68369;51.050;17.018;2023-04-03T20:21:14;101334.18;;;3.78;49.35
79004;BME280;68369;51.050;17.018;2023-04-03T20:24:01;101336.95;;;3.78;49.73
79004;BME280;68369;51.050;17.018;2023-04-03T20:26:46;101336.94;;;3.75;49.39
79004;BME280;68369;51.050;17.018;2023-04-03T20:29:34;101339.20;;;3.74;49.35
79004;BME280;68369;51.050;17.018;2023-04-03T20:32:21;101338.66;;;3.74;49.47
79004;BME280;68369;51.050;17.018;2023-04-03T20:35:07;101335.38;;;3.72;49.61
79004;BME280;68369;51.050;17.018;2023-04-03T20:37:52;101336.23;;;3.72;49.60
79004;BME280;68369;51.050;17.018;2023-04-03T20:40:38;101334.16;;;3.72;49.64
79004;BME280;68369;51.050;17.018;2023-04-03T20:43:23;101335.90;;;3.71;49.57
79004;BME280;68369;51.050;17.018;2023-04-03T20:49:40;101334.85;;;3.69;49.88
79004;BME280;68369;51.050;17.018;2023-04-03T20:52:30;101331.22;;;3.68;50.02
79004;BME280;68369;51.050;17.018;2023-04-03T20:55:15;101334.49;;;3.64;49.83
79004;BME280;68369;51.050;17.018;2023-04-03T20:58:01;101335.16;;;3.59;49.90
79004;BME280;68369;51.050;17.018;2023-04-03T21:00:47;101334.63;;;3.53;49.91
79004;BME280;68369;51.050;17.018;2023-04-03T21:03:32;101336.70;;;3.47;49.75
79004;BME280;68369;51.050;17.018;2023-04-03T21:19:12;101337.36;;;3.01;48.29
79004;BME280;68369;51.050;17.018;2023-04-03T21:21:59;101335.41;;;2.92;48.42
79004;BME280;68369;51.050;17.018;2023-04-03T21:24:45;101337.95;;;2.84;48.43
79004;BME280;68369;51.050;17.018;2023-04-03T21:27:31;101333.05;;;2.75;48.93
79004;BME280;68369;51.050;17.018;2023-04-03T21:30:16;101334.21;;;2.67;48.60
79004;BME280;68369;51.050;17.018;2023-04-03T21:33:01;101334.36;;;2.61;48.76
79004;BME280;68369;51.050;17.018;2023-04-03T21:35:46;101339.15;;;2.54;49.06
79004;BME280;68369;51.050;17.018;2023-04-03T21:38:32;101341.70;;;2.47;49.29
79004;BME280;68369;51.050;17.018;2023-04-03T21:41:19;101344.39;;;2.38;49.13
79004;BME280;68369;51.050;17.018;2023-04-03T21:44:05;101342.42;;;2.30;49.59
79004;BME280;68369;51.050;17.018;2023-04-03T21:46:50;101343.22;;;2.24;49.80
79004;BME280;68369;51.050;17.018;2023-04-03T21:49:37;101341.27;;;2.15;49.93
79004;BME280;68369;51.050;17.018;2023-04-03T21:52:44;101343.27;;;2.08;50.11
79004;BME280;68369;51.050;17.018;2023-04-03T21:55:30;101342.33;;;2.00;50.46
79004;BME280;68369;51.050;17.018;2023-04-03T21:58:15;101344.66;;;1.91;51.22
79004;BME280;68369;51.050;17.018;2023-04-03T22:01:11;101348.75;;;1.86;51.30
79004;BME280;68369;51.050;17.018;2023-04-03T22:03:59;101343.67;;;1.79;51.43
79004;BME280;68369;51.050;17.018;2023-04-03T22:06:46;101344.66;;;1.73;51.96
79004;BME280;68369;51.050;17.018;2023-04-03T22:09:31;101343.73;;;1.68;51.90
79004;BME280;68369;51.050;17.018;2023-04-03T22:12:16;101342.13;;;1.63;52.60
79004;BME280;68369;51.050;17.018;2023-04-03T22:15:01;101343.81;;;1.58;52.66
79004;BME280;68369;51.050;17.018;2023-04-03T22:20:41;101347.48;;;1.47;52.97